Time;durP1;ratioP1;P1;durP2;ratioP2;P2;SDS_P1;SDS_P2;PMS_P1;PMS_P2;Temp;Humidity;BMP_temperature;BMP_pressure;BME280_temperature;BME280_humidity;BME280_pressure;Samples;Min_cycle;Max_cycle;Signal;HPM_P1;HPM_P2
2021/01/23 00:01:22;;;;;;;24.67;10.90;;;4.10;99.90;;;;;;5058751;28;20014;-90
2021/01/23 00:03:50;;;;;;;20.35;11.85;;;4.10;99.90;;;;;;5058449;28;20021;-93
2021/01/23 00:06:18;;;;;;;26.17;12.43;;;4.10;99.90;;;;;;5056911;28;20009;-89
2021/01/23 00:08:44;;;;;;;24.00;11.90;;;4.10;99.90;;;;;;5049465;28;20136;-89
2021/01/23 00:11:10;;;;;;;25.02;12.00;;;4.00;99.90;;;;;;5038979;28;20084;-88
2021/01/23 00:13:38;;;;;;;23.55;12.52;;;4.00;99.90;;;;;;5039655;28;20025;-89
2021/01/23 00:16:07;;;;;;;32.88;13.18;;;4.00;99.90;;;;;;5023874;28;20033;-87
2021/01/23 00:18:33;;;;;;;28.40;12.48;;;4.00;99.90;;;;;;5039471;28;20021;-89
2021/01/23 00:20:59;;;;;;;29.38;13.93;;;4.00;99.90;;;;;;5022216;28;20036;-88
2021/01/23 00:23:24;;;;;;;31.70;11.82;;;4.00;99.90;;;;;;5036069;28;20056;-89
2021/01/23 00:25:50;;;;;;;25.85;12.48;;;4.00;99.90;;;;;;5018032;28;20095;-89
2021/01/23 00:28:16;;;;;;;29.85;12.77;;;3.90;99.90;;;;;;5034744;28;20452;-88
2021/01/23 00:30:42;;;;;;;29.63;14.07;;;4.00;99.90;;;;;;5036577;28;20502;-89
2021/01/23 00:33:12;;;;;;;25.15;12.57;;;4.00;99.90;;;;;;5035791;28;20597;-88
2021/01/23 00:35:38;;;;;;;21.73;11.30;;;4.00;99.90;;;;;;5019212;28;20049;-89
2021/01/23 00:38:04;;;;;;;26.20;11.90;;;4.00;99.90;;;;;;5036278;28;20056;-88
2021/01/23 00:40:30;;;;;;;21.30;11.70;;;4.00;99.90;;;;;;5037707;28;20376;-88
2021/01/23 00:42:55;;;;;;;28.55;11.60;;;3.90;99.90;;;;;;5037048;28;20044;-89
2021/01/23 00:45:23;;;;;;;31.52;12.10;;;3.80;99.90;;;;;;5037466;28;20032;-89
2021/01/23 00:47:49;;;;;;;35.15;12.75;;;3.80;99.90;;;;;;5020572;28;20699;-91
2021/01/23 00:50:17;;;;;;;31.17;12.93;;;3.60;99.90;;;;;;5021052;28;20036;-89
2021/01/23 00:52:43;;;;;;;31.70;14.43;;;3.40;99.90;;;;;;5037326;28;20079;-89
2021/01/23 00:55:10;;;;;;;25.40;13.43;;;3.30;99.90;;;;;;5020799;28;20033;-88
2021/01/23 00:57:38;;;;;;;29.63;12.80;;;3.30;99.90;;;;;;5020357;28;20033;-89
2021/01/23 01:00:06;;;;;;;29.63;14.40;;;3.30;99.90;;;;;;5036595;28;20127;-89
2021/01/23 01:02:32;;;;;;;30.30;13.98;;;3.30;99.90;;;;;;5037053;28;20025;-89
2021/01/23 01:04:58;;;;;;;29.88;15.57;;;3.20;99.90;;;;;;5037290;28;20039;-89
2021/01/23 01:07:24;;;;;;;30.55;15.00;;;3.00;99.90;;;;;;5037529;28;20029;-88
2021/01/23 01:09:52;;;;;;;29.48;15.57;;;3.00;99.90;;;;;;5037476;28;20025;-90
2021/01/23 01:12:17;;;;;;;29.52;16.05;;;3.00;99.90;;;;;;5020700;28;20029;-88
2021/01/23 01:14:45;;;;;;;33.00;15.15;;;3.00;99.90;;;;;;5036564;28;20093;-90
2021/01/23 01:17:11;;;;;;;36.92;16.48;;;3.00;99.90;;;;;;5054502;28;20029;-88
2021/01/23 01:19:37;;;;;;;36.30;17.30;;;3.00;99.90;;;;;;5020771;28;20032;-89
2021/01/23 01:22:02;;;;;;;32.95;16.65;;;3.10;99.90;;;;;;5020923;28;20091;-89
2021/01/23 01:24:28;;;;;;;37.40;16.15;;;2.90;99.90;;;;;;5055629;28;20100;-89
2021/01/23 01:26:54;;;;;;;27.67;15.68;;;3.00;99.90;;;;;;5020987;28;20128;-89
2021/01/23 01:29:20;;;;;;;26.98;14.63;;;3.10;99.90;;;;;;5038133;28;20043;-89
2021/01/23 01:31:45;;;;;;;31.55;16.75;;;3.10;99.90;;;;;;5025060;28;20025;-89
2021/01/23 01:34:11;;;;;;;30.50;16.20;;;3.20;99.90;;;;;;5040863;28;20037;-89
2021/01/23 01:36:37;;;;;;;28.67;15.02;;;3.30;99.90;;;;;;5040717;28;20033;-89
2021/01/23 01:39:03;;;;;;;22.85;14.55;;;3.30;99.90;;;;;;5022882;28;20117;-90
2021/01/23 01:41:28;;;;;;;32.50;16.63;;;3.30;99.90;;;;;;5037097;28;20044;-89
2021/01/23 01:43:54;;;;;;;29.38;16.50;;;3.40;99.90;;;;;;5054352;28;20025;-89
2021/01/23 01:46:20;;;;;;;33.03;16.50;;;3.40;99.90;;;;;;5019460;28;20463;-89
2021/01/23 01:48:50;;;;;;;27.25;15.93;;;3.50;99.90;;;;;;5036040;28;20075;-89
2021/01/23 01:51:16;;;;;;;34.40;15.23;;;3.40;99.90;;;;;;5003396;28;20036;-89
2021/01/23 01:53:44;;;;;;;25.75;15.60;;;3.40;99.90;;;;;;5021701;28;20099;-89
2021/01/23 01:56:10;;;;;;;34.88;16.17;;;3.50;99.90;;;;;;5041992;28;20068;-89
2021/01/23 01:58:35;;;;;;;32.78;18.25;;;3.50;99.90;;;;;;5046292;28;20036;-89
2021/01/23 02:01:04;;;;;;;33.95;17.42;;;3.50;99.90;;;;;;5054684;28;20462;-88
2021/01/23 02:03:44;;;;;;;31.48;16.75;;;3.60;99.90;;;;;;5021021;28;20490;-89
2021/01/23 02:06:28;;;;;;;28.60;18.55;;;3.60;99.90;;;;;;5036163;28;20437;-89
2021/01/23 02:09:09;;;;;;;34.42;17.25;;;3.60;99.90;;;;;;5035878;28;20035;-89
2021/01/23 02:12:00;;;;;;;27.45;16.58;;;3.60;99.90;;;;;;5037468;28;20029;-89
2021/01/23 02:14:47;;;;;;;25.75;16.88;;;3.70;99.90;;;;;;5040110;28;20060;-90
2021/01/23 02:17:17;;;;;;;34.60;17.58;;;3.70;99.90;;;;;;5040164;28;20513;-89
2021/01/23 02:20:10;;;;;;;32.88;15.88;;;3.70;99.90;;;;;;5040146;28;20028;-89
2021/01/23 02:22:55;;;;;;;27.38;16.95;;;3.80;99.90;;;;;;5040867;28;20025;-89
2021/01/23 02:25:22;;;;;;;25.73;16.55;;;3.70;99.90;;;;;;5040200;28;20082;-89
2021/01/23 02:28:12;;;;;;;33.42;19.80;;;3.80;99.90;;;;;;5023652;28;20088;-89
2021/01/23 02:31:09;;;;;;;31.65;17.88;;;3.80;99.90;;;;;;5039532;28;20036;-90
2021/01/23 02:33:37;;;;;;;38.45;17.73;;;3.80;99.90;;;;;;5049650;28;20055;-90
2021/01/23 02:36:07;;;;;;;33.40;17.52;;;3.80;99.90;;;;;;5038859;28;20467;-90
2021/01/23 02:38:34;;;;;;;34.08;18.73;;;3.80;99.90;;;;;;5035210;28;20068;-89
2021/01/23 02:41:01;;;;;;;35.10;18.45;;;3.90;99.90;;;;;;5035843;28;20034;-90
2021/01/23 02:43:28;;;;;;;39.75;20.98;;;3.90;99.90;;;;;;5035732;28;20033;-90
2021/01/23 02:45:54;;;;;;;36.88;19.67;;;3.90;99.90;;;;;;5035925;28;20122;-88
2021/01/23 02:48:19;;;;;;;32.65;19.38;;;3.80;99.90;;;;;;5035714;28;20064;-90
2021/01/23 02:50:46;;;;;;;36.35;18.98;;;3.90;99.90;;;;;;5035607;28;20095;-89
2021/01/23 02:53:24;;;;;;;34.67;17.70;;;3.90;99.90;;;;;;5035308;28;20061;-90
2021/01/23 02:55:58;;;;;;;34.13;18.60;;;3.90;99.90;;;;;;5054178;28;20037;-89
2021/01/23 02:58:27;;;;;;;34.80;19.38;;;3.90;99.90;;;;;;5060010;28;20120;-91
2021/01/23 03:00:53;;;;;;;36.47;19.65;;;3.90;99.90;;;;;;5059833;28;20018;-90
2021/01/23 03:03:21;;;;;;;27.08;19.15;;;4.00;99.90;;;;;;5044924;28;20025;-90
2021/01/23 03:05:48;;;;;;;35.92;18.85;;;4.00;99.90;;;;;;5041743;28;20030;-89
2021/01/23 03:08:14;;;;;;;37.85;20.63;;;4.00;99.90;;;;;;5039311;28;20361;-90
2021/01/23 03:10:43;;;;;;;39.95;23.05;;;3.90;99.90;;;;;;5038256;28;20029;-90
2021/01/23 03:13:10;;;;;;;40.67;22.02;;;3.90;99.90;;;;;;5034738;28;20022;-89
2021/01/23 03:15:36;;;;;;;38.90;23.55;;;3.90;99.90;;;;;;5002179;28;20037;-90
2021/01/23 03:18:02;;;;;;;39.53;25.70;;;3.90;99.90;;;;;;5018735;28;20183;-89
2021/01/23 03:20:28;;;;;;;44.22;24.23;;;3.90;99.90;;;;;;5018372;28;20038;-89
2021/01/23 03:22:59;;;;;;;41.17;23.77;;;3.90;99.90;;;;;;5034679;28;20029;-90
2021/01/23 03:25:29;;;;;;;43.33;25.63;;;3.90;99.90;;;;;;5035090;28;20034;-90
2021/01/23 03:27:55;;;;;;;45.67;26.08;;;3.80;99.90;;;;;;5035438;28;20021;-90
2021/01/23 03:30:22;;;;;;;53.80;26.20;;;3.80;99.90;;;;;;5034951;28;20116;-90
2021/01/23 03:32:49;;;;;;;38.90;23.88;;;3.90;99.90;;;;;;5036389;28;20021;-90
2021/01/23 03:35:16;;;;;;;44.90;25.23;;;3.90;99.90;;;;;;5035279;28;20037;-90
2021/01/23 03:37:42;;;;;;;47.15;24.73;;;3.80;99.90;;;;;;5035413;28;20030;-90
2021/01/23 03:40:09;;;;;;;38.08;25.63;;;3.90;99.90;;;;;;5034711;28;20105;-90
2021/01/23 03:42:39;;;;;;;42.20;26.30;;;3.90;99.90;;;;;;5034520;28;20542;-90
2021/01/23 03:45:07;;;;;;;41.20;27.80;;;3.90;99.90;;;;;;5036336;28;20053;-90
2021/01/23 03:47:34;;;;;;;49.92;28.05;;;4.00;99.90;;;;;;5034208;28;20025;-89
2021/01/23 03:49:59;;;;;;;49.45;29.58;;;3.90;99.90;;;;;;5034720;28;20065;-90
2021/01/23 03:52:28;;;;;;;52.67;28.92;;;3.90;99.90;;;;;;5034447;28;20510;-90
2021/01/23 03:54:58;;;;;;;52.88;29.80;;;4.00;99.90;;;;;;5033793;28;20037;-90
2021/01/23 03:57:24;;;;;;;49.08;30.95;;;4.10;99.90;;;;;;5018062;28;20037;-90
2021/01/23 03:59:50;;;;;;;52.47;31.48;;;4.10;99.90;;;;;;5034292;28;20075;-90
2021/01/23 04:02:18;;;;;;;49.42;31.20;;;4.10;99.90;;;;;;5034119;28;20056;-90
2021/01/23 04:04:44;;;;;;;53.17;30.35;;;4.00;99.90;;;;;;5034382;28;20388;-90
2021/01/23 04:07:11;;;;;;;48.50;32.42;;;4.10;99.90;;;;;;5035812;28;20036;-90
2021/01/23 04:09:36;;;;;;;53.17;34.22;;;4.10;99.90;;;;;;5037766;28;20132;-90
2021/01/23 04:12:02;;;;;;;54.47;33.53;;;4.10;99.90;;;;;;5021603;28;20057;-90
2021/01/23 04:14:28;;;;;;;55.15;31.50;;;4.10;99.90;;;;;;5034616;28;20033;-87
2021/01/23 04:16:54;;;;;;;50.92;31.13;;;4.00;99.90;;;;;;5034471;28;20481;-88
2021/01/23 04:19:19;;;;;;;51.05;30.17;;;4.10;99.90;;;;;;5033981;28;20395;-87
2021/01/23 04:21:45;;;;;;;55.42;31.17;;;4.10;99.90;;;;;;5017950;28;20053;-90
2021/01/23 04:24:11;;;;;;;42.67;27.88;;;4.00;99.90;;;;;;5034015;28;20529;-90
2021/01/23 04:26:41;;;;;;;47.13;28.17;;;4.00;99.90;;;;;;5033707;28;20117;-90
2021/01/23 04:29:10;;;;;;;45.58;28.17;;;4.00;99.90;;;;;;5033647;28;20056;-90
2021/01/23 04:31:36;;;;;;;48.83;29.77;;;4.10;99.90;;;;;;5033739;28;20026;-89
2021/01/23 04:34:02;;;;;;;45.13;27.88;;;4.00;99.90;;;;;;5017025;28;20060;-90
2021/01/23 04:36:28;;;;;;;44.83;28.27;;;4.10;99.90;;;;;;5016250;28;20034;-91
2021/01/23 04:38:53;;;;;;;46.40;29.15;;;4.10;99.90;;;;;;5033329;28;20041;-90
2021/01/23 04:41:19;;;;;;;46.00;28.20;;;4.10;99.90;;;;;;5017104;28;20076;-90
2021/01/23 04:43:47;;;;;;;48.92;26.70;;;4.10;99.90;;;;;;5017041;28;20033;-89
2021/01/23 04:46:13;;;;;;;42.58;26.38;;;4.20;99.90;;;;;;5033796;28;20029;-90
2021/01/23 04:48:38;;;;;;;37.88;25.35;;;4.20;99.90;;;;;;5033822;28;20033;-90
2021/01/23 04:51:05;;;;;;;39.90;24.42;;;4.20;99.90;;;;;;5033434;28;20475;-91
2021/01/23 04:53:32;;;;;;;50.00;27.60;;;4.20;99.90;;;;;;5033511;28;20143;-90
2021/01/23 04:55:59;;;;;;;38.63;24.88;;;4.10;99.90;;;;;;5033901;28;20033;-90
2021/01/23 04:58:25;;;;;;;38.78;25.65;;;4.20;99.90;;;;;;5033449;28;20380;-90
2021/01/23 05:00:51;;;;;;;37.15;23.00;;;4.10;99.90;;;;;;5033829;28;20026;-90
2021/01/23 05:03:17;;;;;;;35.60;23.73;;;4.20;99.90;;;;;;5033538;28;20480;-89
2021/01/23 05:06:02;;;;;;;40.10;25.52;;;4.20;99.90;;;;;;5033667;28;20083;-89
2021/01/23 05:08:38;;;;;;;34.72;23.17;;;4.20;99.90;;;;;;5033436;28;20502;-90
2021/01/23 05:11:07;;;;;;;35.72;21.58;;;4.20;99.90;;;;;;5033231;28;20033;-90
2021/01/23 05:13:35;;;;;;;34.65;20.60;;;4.20;99.90;;;;;;5017590;28;20030;-89
2021/01/23 05:16:01;;;;;;;29.98;20.48;;;4.20;99.90;;;;;;5037113;28;20045;-90
2021/01/23 05:18:27;;;;;;;30.33;19.60;;;4.20;99.90;;;;;;5039867;28;20040;-90
2021/01/23 05:20:53;;;;;;;30.83;21.13;;;4.20;99.90;;;;;;5023648;28;20048;-91
2021/01/23 05:23:28;;;;;;;30.40;18.48;;;4.20;99.90;;;;;;5022683;28;20036;-90
2021/01/23 05:26:03;;;;;;;25.65;18.17;;;4.20;99.90;;;;;;5033825;28;20034;-91
2021/01/23 05:28:35;;;;;;;;;;;4.20;99.90;;;;;;5033439;28;20116;-90
2021/01/23 05:31:02;;;;;;;26.40;18.00;;;4.20;99.90;;;;;;5032968;28;19909;-90
2021/01/23 05:33:32;;;;;;;27.85;17.70;;;4.10;99.90;;;;;;5032547;28;20380;-89
2021/01/23 05:36:03;;;;;;;29.98;18.33;;;4.10;99.90;;;;;;5032476;28;20473;-90
2021/01/23 05:38:31;;;;;;;29.60;19.83;;;4.20;99.90;;;;;;5032277;28;20025;-90
2021/01/23 05:41:13;;;;;;;25.20;17.58;;;4.10;99.90;;;;;;5033980;28;20026;-90
2021/01/23 05:43:43;;;;;;;26.33;18.77;;;4.10;99.90;;;;;;5016848;28;20087;-89
2021/01/23 05:46:14;;;;;;;29.70;19.00;;;4.10;99.90;;;;;;5016050;28;20535;-91
2021/01/23 05:48:43;;;;;;;30.65;19.65;;;4.10;99.90;;;;;;5016236;28;20033;-90
2021/01/23 05:51:12;;;;;;;29.25;20.30;;;4.10;99.90;;;;;;5016247;28;20032;-90
2021/01/23 05:53:38;;;;;;;28.42;19.52;;;4.20;99.90;;;;;;5015681;28;20030;-91
2021/01/23 05:56:04;;;;;;;30.75;20.42;;;4.10;99.90;;;;;;5016368;28;20059;-90
2021/01/23 05:58:37;;;;;;;33.95;22.50;;;4.20;99.90;;;;;;4999636;28;20092;-89
2021/01/23 06:01:20;;;;;;;29.42;19.90;;;4.20;99.90;;;;;;5034107;28;20022;-89
2021/01/23 06:03:51;;;;;;;27.73;19.05;;;4.20;99.90;;;;;;5015870;28;20431;-89
2021/01/23 06:06:17;;;;;;;35.22;21.02;;;4.20;99.90;;;;;;5019608;28;20483;-89
2021/01/23 06:08:48;;;;;;;30.40;19.83;;;4.20;99.90;;;;;;5016247;28;20021;-89
2021/01/23 06:11:20;;;;;;;31.85;19.20;;;4.20;99.90;;;;;;5016408;28;20062;-89
2021/01/23 06:13:53;;;;;;;30.98;21.25;;;4.30;99.90;;;;;;5033681;28;20507;-89
2021/01/23 06:16:34;;;;;;;37.92;20.42;;;4.30;99.90;;;;;;5016187;28;20036;-89
2021/01/23 06:19:00;;;;;;;33.28;20.02;;;4.30;99.90;;;;;;5016723;28;20026;-89
2021/01/23 06:21:44;;;;;;;32.58;20.25;;;4.30;99.90;;;;;;5035122;28;20092;-82
2021/01/23 06:24:11;;;;;;;33.03;21.13;;;4.40;99.90;;;;;;5022320;28;20038;-90
2021/01/23 06:26:52;;;;;;;31.02;20.23;;;4.30;99.90;;;;;;5018367;28;20119;-90
2021/01/23 06:29:38;;;;;;;34.38;22.27;;;4.40;99.90;;;;;;5034695;28;20100;-90
2021/01/23 06:32:13;;;;;;;27.67;18.70;;;4.30;99.90;;;;;;5016512;28;20021;-90
2021/01/23 06:34:58;;;;;;;25.45;18.25;;;4.30;99.90;;;;;;5016098;28;20033;-90
2021/01/23 06:37:37;;;;;;;26.42;18.70;;;4.40;99.90;;;;;;5033815;28;20025;-90
2021/01/23 06:40:07;;;;;;;32.00;19.88;;;4.30;99.90;;;;;;5028163;28;20049;-90
2021/01/23 06:42:39;;;;;;;25.15;18.00;;;4.30;99.90;;;;;;5032140;28;20026;-92
2021/01/23 06:45:21;;;;;;;31.63;20.55;;;4.30;99.90;;;;;;5032289;28;20036;-91
2021/01/23 06:47:53;;;;;;;28.65;18.52;;;4.20;99.90;;;;;;5032402;28;20079;-90
2021/01/23 06:50:29;;;;;;;25.92;18.33;;;4.20;99.90;;;;;;5032322;28;20029;-91
2021/01/23 06:52:55;;;;;;;26.02;18.17;;;4.20;99.90;;;;;;5032830;28;20030;-91
2021/01/23 06:55:49;;;;;;;30.65;19.67;;;4.20;99.90;;;;;;5016631;28;20377;-90
2021/01/23 06:58:17;;;;;;;28.42;20.30;;;4.20;99.90;;;;;;5017294;28;20491;-90
2021/01/23 07:00:46;;;;;;;26.33;16.65;;;4.20;99.90;;;;;;5035333;28;20028;-91
2021/01/23 07:03:23;;;;;;;23.35;16.17;;;4.20;99.90;;;;;;5036744;28;20028;-92
2021/01/23 07:05:57;;;;;;;31.15;18.15;;;4.30;99.90;;;;;;5037439;28;20055;-91
2021/01/23 07:08:37;;;;;;;24.10;16.13;;;4.20;99.90;;;;;;5036940;28;20426;-91
2021/01/23 07:11:06;;;;;;;26.73;15.20;;;4.20;99.90;;;;;;5036155;28;20030;-91
2021/01/23 07:13:33;;;;;;;27.70;14.40;;;4.30;99.90;;;;;;5036603;28;20022;-91
2021/01/23 07:16:01;;;;;;;21.83;13.63;;;4.40;99.90;;;;;;5047472;28;20044;-91
2021/01/23 07:18:28;;;;;;;20.63;13.35;;;4.30;99.90;;;;;;5057914;28;20086;-92
2021/01/23 07:21:02;;;;;;;25.80;13.75;;;4.30;99.90;;;;;;5058503;28;20075;-90
2021/01/23 07:23:28;;;;;;;23.63;13.75;;;4.30;99.90;;;;;;5056801;28;20078;-91
2021/01/23 07:25:58;;;;;;;18.20;12.77;;;4.30;99.90;;;;;;5055522;28;20029;-91
2021/01/23 07:28:24;;;;;;;23.05;13.68;;;4.30;99.90;;;;;;5056188;28;20079;-91
2021/01/23 07:30:50;;;;;;;23.73;12.93;;;4.20;99.90;;;;;;5056687;28;20029;-92
2021/01/23 07:33:32;;;;;;;19.80;12.30;;;4.20;99.90;;;;;;5057097;28;20040;-89
2021/01/23 07:35:58;;;;;;;20.33;13.70;;;4.30;99.90;;;;;;5065420;28;20116;-91
2021/01/23 07:38:27;;;;;;;22.85;13.32;;;4.20;99.90;;;;;;5057921;28;20411;-90
2021/01/23 07:40:56;;;;;;;17.50;12.85;;;4.30;99.90;;;;;;5059849;28;20028;-91
2021/01/23 07:43:25;;;;;;;17.25;12.13;;;4.30;99.90;;;;;;5041956;28;20045;-90
2021/01/23 07:46:02;;;;;;;21.33;13.55;;;4.30;99.90;;;;;;5043221;28;20029;-90
2021/01/23 07:48:39;;;;;;;20.10;13.10;;;4.30;99.90;;;;;;5043954;28;20033;-91
2021/01/23 07:51:05;;;;;;;21.45;14.25;;;4.30;99.90;;;;;;5048255;28;20033;-90
2021/01/23 07:53:31;;;;;;;20.38;13.57;;;4.30;99.90;;;;;;5017888;28;20025;-91
2021/01/23 07:55:59;;;;;;;21.52;13.32;;;4.30;99.90;;;;;;5054994;28;20029;-89
2021/01/23 07:58:26;;;;;;;20.23;12.18;;;4.40;99.90;;;;;;5070252;28;20092;-90
2021/01/23 08:00:52;;;;;;;22.63;13.45;;;4.50;99.90;;;;;;5062025;28;20033;-91
2021/01/23 08:03:17;;;;;;;17.52;11.15;;;4.50;99.90;;;;;;5061447;28;20013;-91
2021/01/23 08:05:54;;;;;;;16.52;10.38;;;4.50;99.90;;;;;;5077795;28;20021;-94
2021/01/23 08:08:49;;;;;;;16.77;10.93;;;4.50;99.90;;;;;;5060466;28;20026;-90
2021/01/23 08:11:41;;;;;;;18.65;10.70;;;4.50;99.90;;;;;;5074255;28;20040;-91
2021/01/23 08:14:17;;;;;;;15.80;8.93;;;4.50;99.90;;;;;;5075691;28;20045;-91
2021/01/23 08:16:53;;;;;;;17.63;9.30;;;4.60;99.90;;;;;;5061423;28;20029;-94
2021/01/23 08:19:19;;;;;;;17.73;9.45;;;4.50;99.90;;;;;;5061847;28;20017;-89
2021/01/23 08:22:07;;;;;;;12.55;8.75;;;4.50;99.90;;;;;;5078882;28;20088;-96
2021/01/23 08:24:33;;;;;;;15.80;8.50;;;4.40;99.90;;;;;;5061344;28;20088;-88
2021/01/23 08:27:01;;;;;;;14.40;8.38;;;4.50;99.90;;;;;;5061152;28;20021;-87
2021/01/23 08:29:27;;;;;;;17.52;7.13;;;4.60;99.90;;;;;;5060211;28;20036;-90
2021/01/23 08:32:07;;;;;;;9.88;4.93;;;4.60;99.90;;;;;;5069881;28;20070;-90
2021/01/23 08:34:36;;;;;;;11.40;3.97;;;4.60;99.90;;;;;;5044991;28;20068;-91
2021/01/23 08:37:04;;;;;;;7.75;3.83;;;4.70;99.90;;;;;;5035021;28;20064;-90
2021/01/23 08:39:46;;;;;;;18.50;6.78;;;4.80;99.90;;;;;;5080920;28;20049;-89
2021/01/23 08:42:11;;;;;;;9.05;2.92;;;4.70;99.90;;;;;;5044909;28;20041;-88
2021/01/23 08:44:38;;;;;;;3.83;2.10;;;4.90;99.90;;;;;;5059633;28;20126;-89
2021/01/23 08:47:05;;;;;;;6.22;2.60;;;4.90;99.90;;;;;;5057502;28;20029;-89
2021/01/23 08:49:31;;;;;;;8.30;1.90;;;4.90;99.90;;;;;;5057731;28;20107;-89
2021/01/23 08:51:59;;;;;;;6.43;2.05;;;4.90;99.90;;;;;;5055821;28;20374;-90
2021/01/23 08:54:28;;;;;;;6.32;1.92;;;5.00;99.90;;;;;;5020211;28;20064;-88
2021/01/23 08:56:54;;;;;;;3.92;1.40;;;5.30;99.90;;;;;;5037024;28;20025;-88
2021/01/23 08:59:19;;;;;;;2.72;1.40;;;5.50;99.90;;;;;;5038226;28;20025;-87
2021/01/23 09:01:45;;;;;;;9.07;1.65;;;6.10;99.90;;;;;;5040782;28;20082;-88
2021/01/23 09:04:11;;;;;;;5.60;1.30;;;6.80;99.90;;;;;;5040325;28;20024;-89
2021/01/23 09:06:39;;;;;;;7.53;1.95;;;7.20;99.90;;;;;;5040904;28;20025;-88
2021/01/23 09:09:05;;;;;;;6.20;2.08;;;7.30;99.90;;;;;;5023378;28;20119;-88
2021/01/23 09:11:31;;;;;;;11.98;1.92;;;7.00;99.90;;;;;;5036110;28;20112;-89
2021/01/23 09:13:57;;;;;;;5.60;1.40;;;6.70;99.90;;;;;;5002627;28;20470;-89
2021/01/23 09:16:25;;;;;;;5.75;1.60;;;6.40;99.90;;;;;;5019758;28;20123;-89
2021/01/23 09:18:53;;;;;;;9.82;1.75;;;6.10;99.90;;;;;;5035731;28;20382;-89
2021/01/23 09:21:19;;;;;;;7.32;2.42;;;5.90;99.90;;;;;;5036059;28;20029;-89
2021/01/23 09:23:47;;;;;;;7.05;1.75;;;5.80;99.90;;;;;;5036509;28;20092;-88
2021/01/23 09:26:13;;;;;;;5.28;1.98;;;5.60;99.90;;;;;;5036733;28;20025;-88
2021/01/23 09:28:46;;;;;;;5.47;1.65;;;5.50;99.90;;;;;;5004192;28;20036;-88
2021/01/23 09:31:12;;;;;;;11.75;1.77;;;5.40;99.90;;;;;;5019584;28;20501;-87
2021/01/23 09:33:41;;;;;;;3.60;1.20;;;5.40;99.90;;;;;;5039521;28;20025;-90
2021/01/23 09:36:09;;;;;;;4.93;1.38;;;5.40;99.90;;;;;;5027467;28;20040;-88
2021/01/23 09:38:35;;;;;;;4.80;1.70;;;5.40;99.90;;;;;;5036373;28;20040;-89
2021/01/23 09:41:00;;;;;;;5.15;1.75;;;5.40;99.90;;;;;;5053046;28;20060;-88
2021/01/23 09:43:26;;;;;;;4.63;1.30;;;5.40;99.90;;;;;;5022875;28;20028;-86
2021/01/23 09:45:55;;;;;;;2.80;1.73;;;5.60;99.90;;;;;;5055648;28;20037;-90
2021/01/23 09:48:21;;;;;;;4.18;1.52;;;5.70;99.90;;;;;;5023285;28;20029;-89
2021/01/23 09:50:47;;;;;;;6.43;1.42;;;5.60;99.90;;;;;;5073624;28;20028;-89
2021/01/23 09:53:13;;;;;;;4.85;1.65;;;5.60;99.90;;;;;;5055657;28;20025;-87
2021/01/23 09:55:38;;;;;;;5.50;2.25;;;5.50;99.90;;;;;;5057555;28;20039;-89
2021/01/23 09:58:04;;;;;;;3.80;1.42;;;5.70;99.90;;;;;;5058423;28;20060;-88
2021/01/23 10:00:30;;;;;;;4.22;1.52;;;5.70;99.90;;;;;;5073705;28;20082;-89
2021/01/23 10:02:55;;;;;;;2.92;1.13;;;5.70;99.90;;;;;;5055404;28;20029;-90
2021/01/23 10:05:21;;;;;;;7.05;1.63;;;5.70;99.90;;;;;;5056159;28;20067;-89
2021/01/23 10:07:47;;;;;;;4.55;1.40;;;5.80;99.90;;;;;;5073576;28;20051;-89
2021/01/23 10:10:16;;;;;;;7.07;1.80;;;5.80;99.90;;;;;;5055092;28;20085;-90
2021/01/23 10:12:41;;;;;;;6.00;1.75;;;5.80;99.90;;;;;;5056672;28;20442;-89
2021/01/23 10:15:07;;;;;;;4.25;1.80;;;5.70;99.90;;;;;;5073560;28;20028;-90
2021/01/23 10:17:33;;;;;;;6.32;1.80;;;5.80;99.90;;;;;;5055867;28;20074;-88
2021/01/23 10:19:59;;;;;;;3.25;1.85;;;5.80;99.90;;;;;;5055967;28;20021;-89
2021/01/23 10:22:24;;;;;;;6.15;1.73;;;5.80;99.90;;;;;;5055863;28;20021;-88
2021/01/23 10:24:50;;;;;;;1.95;1.40;;;5.80;99.90;;;;;;5055933;28;20037;-88
2021/01/23 10:27:16;;;;;;;7.45;1.65;;;5.90;99.90;;;;;;5056060;28;20619;-89
2021/01/23 10:29:43;;;;;;;5.50;1.98;;;6.00;99.90;;;;;;5055983;28;20025;-88
2021/01/23 10:32:11;;;;;;;8.05;1.98;;;6.00;99.90;;;;;;5057473;28;20024;-88
2021/01/23 10:34:39;;;;;;;4.22;1.50;;;6.00;99.90;;;;;;5042455;28;20037;-89
2021/01/23 10:37:05;;;;;;;4.40;1.80;;;5.90;99.90;;;;;;5059823;28;20032;-88
2021/01/23 10:39:31;;;;;;;5.97;1.98;;;5.90;99.90;;;;;;5072079;28;20044;-89
2021/01/23 10:41:57;;;;;;;5.07;1.92;;;6.00;99.90;;;;;;5039186;28;20028;-89
2021/01/23 10:44:25;;;;;;;7.93;1.73;;;6.00;99.90;;;;;;5039600;28;20091;-89
2021/01/23 10:46:55;;;;;;;6.50;1.70;;;6.00;99.90;;;;;;5038928;28;20082;-89
2021/01/23 10:49:21;;;;;;;2.80;1.50;;;5.90;99.90;;;;;;5039095;28;20036;-88
2021/01/23 10:51:48;;;;;;;6.65;2.30;;;5.90;99.90;;;;;;5038679;28;20463;-88
2021/01/23 10:54:16;;;;;;;5.70;1.60;;;5.90;99.90;;;;;;5056691;28;20048;-88
2021/01/23 10:56:42;;;;;;;11.18;2.30;;;5.90;99.90;;;;;;5041887;28;20029;-88
2021/01/23 10:59:08;;;;;;;8.00;1.70;;;5.90;99.90;;;;;;5053634;28;20029;-88
2021/01/23 11:01:37;;;;;;;3.38;1.70;;;5.90;99.90;;;;;;5041097;28;20021;-87
2021/01/23 11:04:03;;;;;;;9.20;2.08;;;5.90;99.90;;;;;;5041925;28;20040;-89
2021/01/23 11:06:34;;;;;;;6.45;3.53;;;5.90;99.90;;;;;;5024904;28;20474;-88
2021/01/23 11:09:00;;;;;;;8.75;2.80;;;6.10;99.90;;;;;;5028105;28;20025;-87
2021/01/23 11:11:30;;;;;;;6.47;2.38;;;6.00;99.90;;;;;;5042183;28;20032;-87
2021/01/23 11:14:05;;;;;;;6.22;2.80;;;6.00;99.90;;;;;;5056425;28;20028;-88
2021/01/23 11:16:33;;;;;;;8.05;2.20;;;6.00;99.90;;;;;;5038074;28;20040;-88
2021/01/23 11:18:59;;;;;;;8.68;2.83;;;6.00;99.90;;;;;;5038185;28;20079;-86
2021/01/23 11:21:26;;;;;;;7.70;2.72;;;6.00;99.90;;;;;;5037550;28;20029;-88
2021/01/23 11:23:52;;;;;;;6.45;2.20;;;6.00;99.90;;;;;;5021263;28;20033;-88
2021/01/23 11:26:17;;;;;;;5.97;2.42;;;6.00;99.90;;;;;;5039164;28;20062;-87
2021/01/23 11:28:43;;;;;;;7.78;2.60;;;6.10;99.90;;;;;;5059186;28;20033;-87
2021/01/23 11:31:16;;;;;;;7.30;2.30;;;6.10;99.90;;;;;;5038608;28;20117;-87
2021/01/23 11:33:41;;;;;;;9.75;2.95;;;6.10;99.90;;;;;;5021989;28;20473;-88
2021/01/23 11:36:10;;;;;;;6.25;2.22;;;6.00;99.90;;;;;;5056043;28;20040;-88
2021/01/23 11:38:38;;;;;;;6.28;1.92;;;5.90;99.90;;;;;;5038277;28;20471;-89
2021/01/23 11:41:06;;;;;;;4.43;2.20;;;5.90;99.90;;;;;;5039050;28;20059;-89
2021/01/23 11:43:39;;;;;;;7.60;2.70;;;6.00;99.90;;;;;;5057806;28;20033;-90
2021/01/23 11:46:08;;;;;;;7.80;1.98;;;6.00;99.90;;;;;;5057555;28;20029;-90
2021/01/23 11:48:34;;;;;;;5.93;2.70;;;6.00;99.90;;;;;;5058247;28;20077;-89
2021/01/23 11:51:00;;;;;;;5.47;1.75;;;6.10;99.90;;;;;;5057981;28;20032;-90
2021/01/23 11:53:28;;;;;;;11.45;2.20;;;6.10;99.90;;;;;;5041646;28;20494;-90
2021/01/23 11:55:55;;;;;;;4.25;2.13;;;6.10;99.90;;;;;;5041098;28;20521;-89
2021/01/23 11:58:21;;;;;;;6.40;1.77;;;6.10;99.90;;;;;;5059975;28;20113;-90
2021/01/23 12:00:46;;;;;;;6.72;1.95;;;6.10;99.90;;;;;;5076237;28;20056;-90
2021/01/23 12:03:16;;;;;;;4.22;2.10;;;6.10;99.90;;;;;;5057795;28;20035;-89
2021/01/23 12:05:48;;;;;;;3.85;1.85;;;6.20;99.90;;;;;;5041903;28;20113;-92
2021/01/23 12:08:14;;;;;;;5.20;2.78;;;6.30;99.90;;;;;;5058571;28;20035;-89
2021/01/23 12:10:43;;;;;;;3.42;1.60;;;6.30;99.90;;;;;;5059356;28;20033;-93
2021/01/23 12:13:11;;;;;;;4.25;1.83;;;6.40;99.90;;;;;;5058852;28;20416;-90
2021/01/23 12:15:40;;;;;;;6.68;2.20;;;6.40;99.90;;;;;;5057733;28;20032;-89
2021/01/23 12:18:05;;;;;;;8.63;2.60;;;6.40;99.90;;;;;;5058006;28;20056;-90
2021/01/23 12:20:34;;;;;;;8.13;2.30;;;6.60;99.90;;;;;;5056987;28;20473;-90
2021/01/23 12:23:04;;;;;;;11.50;3.13;;;6.50;99.90;;;;;;5075231;28;20025;-91
2021/01/23 12:25:29;;;;;;;15.13;3.75;;;6.60;99.90;;;;;;5057909;28;20025;-90
2021/01/23 12:27:56;;;;;;;6.38;2.50;;;6.70;99.90;;;;;;5075954;28;20031;-89
2021/01/23 12:30:25;;;;;;;10.93;2.88;;;6.60;99.90;;;;;;5058279;28;20025;-91
2021/01/23 12:32:51;;;;;;;8.75;3.53;;;6.50;99.90;;;;;;5047171;28;20024;-90
2021/01/23 12:35:17;;;;;;;9.75;3.40;;;6.60;99.90;;;;;;5067906;28;20089;-91
2021/01/23 12:37:47;;;;;;;7.18;3.03;;;6.50;99.90;;;;;;5069171;28;20032;-89
2021/01/23 12:40:13;;;;;;;10.68;3.22;;;6.50;99.90;;;;;;5065229;28;20152;-91
2021/01/23 12:42:40;;;;;;;13.02;3.78;;;6.40;99.90;;;;;;5058550;28;20032;-91
2021/01/23 12:45:07;;;;;;;7.47;3.70;;;6.40;99.90;;;;;;5060395;28;20119;-89
2021/01/23 12:47:35;;;;;;;10.05;2.83;;;6.50;99.90;;;;;;5065453;28;20048;-90
2021/01/23 12:50:02;;;;;;;9.27;3.53;;;6.40;99.90;;;;;;5067832;28;20060;-89
2021/01/23 12:52:31;;;;;;;7.53;2.50;;;6.40;99.90;;;;;;5062320;28;20048;-89